sensor_id;sensor_type;location;lat;lon;timestamp;pressure;altitude;pressure_sealevel;temperature;humidity
44351;BME280;62766;62.622;17.912;2022-11-15T00:01:15;101788.73;;;4.29;66.51
44351;BME280;62766;62.622;17.912;2022-11-15T00:03:45;101801.66;;;4.22;66.91
44351;BME280;62766;62.622;17.912;2022-11-15T00:06:14;101803.62;;;4.32;67.26
44351;BME280;62766;62.622;17.912;2022-11-15T00:08:43;101805.35;;;4.25;67.16
44351;BME280;62766;62.622;17.912;2022-11-15T00:11:12;101811.17;;;4.21;67.23
44351;BME280;62766;62.622;17.912;2022-11-15T00:13:41;101812.88;;;4.26;67.04
44351;BME280;62766;62.622;17.912;2022-11-15T00:16:10;101811.86;;;4.28;66.85
44351;BME280;62766;62.622;17.912;2022-11-15T00:18:38;101818.31;;;4.26;66.72
44351;BME280;62766;62.622;17.912;2022-11-15T00:21:10;101817.48;;;4.33;66.41
44351;BME280;62766;62.622;17.912;2022-11-15T00:23:38;101823.64;;;4.18;66.40
44351;BME280;62766;62.622;17.912;2022-11-15T00:26:10;101827.86;;;4.26;66.15
44351;BME280;62766;62.622;17.912;2022-11-15T00:28:41;101826.56;;;4.15;65.78
44351;BME280;62766;62.622;17.912;2022-11-15T00:31:13;101831.23;;;4.10;65.61
44351;BME280;62766;62.622;17.912;2022-11-15T00:33:43;101836.00;;;4.01;65.76
44351;BME280;62766;62.622;17.912;2022-11-15T00:36:12;101840.97;;;4.02;65.86
44351;BME280;62766;62.622;17.912;2022-11-15T00:38:41;101843.19;;;4.00;65.58
44351;BME280;62766;62.622;17.912;2022-11-15T00:41:10;101842.95;;;3.93;65.66
44351;BME280;62766;62.622;17.912;2022-11-15T00:43:39;101842.11;;;3.91;65.76
44351;BME280;62766;62.622;17.912;2022-11-15T00:46:08;101842.63;;;3.86;65.90
44351;BME280;62766;62.622;17.912;2022-11-15T00:48:37;101849.76;;;3.77;65.73
44351;BME280;62766;62.622;17.912;2022-11-15T00:51:06;101847.64;;;3.84;65.62
44351;BME280;62766;62.622;17.912;2022-11-15T00:53:34;101848.55;;;3.71;65.69
44351;BME280;62766;62.622;17.912;2022-11-15T00:56:03;101849.50;;;3.73;65.72
44351;BME280;62766;62.622;17.912;2022-11-15T00:58:31;101851.29;;;3.69;65.47
44351;BME280;62766;62.622;17.912;2022-11-15T01:01:06;101859.85;;;3.61;65.80
44351;BME280;62766;62.622;17.912;2022-11-15T01:03:38;101861.52;;;3.50;66.00
44351;BME280;62766;62.622;17.912;2022-11-15T01:06:08;101860.83;;;3.35;65.94
44351;BME280;62766;62.622;17.912;2022-11-15T01:08:38;101877.03;;;3.40;66.29
44351;BME280;62766;62.622;17.912;2022-11-15T01:11:10;101880.14;;;3.36;66.46
44351;BME280;62766;62.622;17.912;2022-11-15T01:13:39;101878.60;;;3.34;66.00
44351;BME280;62766;62.622;17.912;2022-11-15T01:16:13;101884.36;;;3.38;65.64
44351;BME280;62766;62.622;17.912;2022-11-15T01:18:43;101891.21;;;3.44;65.85
44351;BME280;62766;62.622;17.912;2022-11-15T01:21:13;101888.20;;;3.40;65.88
44351;BME280;62766;62.622;17.912;2022-11-15T01:23:41;101890.68;;;3.30;66.01
44351;BME280;62766;62.622;17.912;2022-11-15T01:26:11;101893.18;;;3.39;66.17
44351;BME280;62766;62.622;17.912;2022-11-15T01:28:41;101895.00;;;3.25;66.07
44351;BME280;62766;62.622;17.912;2022-11-15T01:31:13;101895.32;;;3.33;65.28
44351;BME280;62766;62.622;17.912;2022-11-15T01:33:42;101900.98;;;3.38;65.50
44351;BME280;62766;62.622;17.912;2022-11-15T01:36:12;101900.73;;;3.43;65.48
44351;BME280;62766;62.622;17.912;2022-11-15T01:38:42;101900.43;;;3.27;65.31
44351;BME280;62766;62.622;17.912;2022-11-15T01:41:16;101900.29;;;3.32;65.22
44351;BME280;62766;62.622;17.912;2022-11-15T01:43:47;101907.81;;;3.27;65.15
44351;BME280;62766;62.622;17.912;2022-11-15T01:46:28;101911.08;;;3.30;65.05
44351;BME280;62766;62.622;17.912;2022-11-15T01:49:01;101899.77;;;3.31;65.30
44351;BME280;62766;62.622;17.912;2022-11-15T01:51:33;101905.96;;;3.16;65.33
44351;BME280;62766;62.622;17.912;2022-11-15T01:54:06;101907.20;;;3.21;65.05
44351;BME280;62766;62.622;17.912;2022-11-15T01:56:40;101905.63;;;3.15;65.05
44351;BME280;62766;62.622;17.912;2022-11-15T01:59:11;101911.48;;;3.14;64.97
44351;BME280;62766;62.622;17.912;2022-11-15T02:01:40;101915.69;;;3.11;64.85
44351;BME280;62766;62.622;17.912;2022-11-15T02:04:14;101913.65;;;3.28;64.59
44351;BME280;62766;62.622;17.912;2022-11-15T02:06:46;101909.96;;;3.05;64.67
44351;BME280;62766;62.622;17.912;2022-11-15T02:09:15;101912.96;;;3.08;64.79
44351;BME280;62766;62.622;17.912;2022-11-15T02:11:46;101913.11;;;3.04;64.42
44351;BME280;62766;62.622;17.912;2022-11-15T02:14:17;101920.50;;;2.88;64.87
44351;BME280;62766;62.622;17.912;2022-11-15T02:16:52;101917.98;;;2.84;65.18
44351;BME280;62766;62.622;17.912;2022-11-15T02:19:40;101917.60;;;2.80;64.74
44351;BME280;62766;62.622;17.912;2022-11-15T02:22:27;101913.21;;;2.77;64.34
44351;BME280;62766;62.622;17.912;2022-11-15T02:25:08;101900.62;;;2.82;64.30
44351;BME280;62766;62.622;17.912;2022-11-15T02:27:54;101909.30;;;2.77;63.93
44351;BME280;62766;62.622;17.912;2022-11-15T02:30:35;101909.94;;;2.86;64.11
44351;BME280;62766;62.622;17.912;2022-11-15T02:33:18;101913.67;;;2.74;64.33
44351;BME280;62766;62.622;17.912;2022-11-15T02:35:57;101917.49;;;2.84;64.25
44351;BME280;62766;62.622;17.912;2022-11-15T02:38:31;101915.08;;;2.73;64.35
44351;BME280;62766;62.622;17.912;2022-11-15T02:41:06;101916.30;;;2.74;64.23
44351;BME280;62766;62.622;17.912;2022-11-15T02:43:42;101918.36;;;2.75;64.31
44351;BME280;62766;62.622;17.912;2022-11-15T02:46:18;101921.25;;;2.68;64.44
44351;BME280;62766;62.622;17.912;2022-11-15T02:48:49;101923.78;;;2.76;64.54
44351;BME280;62766;62.622;17.912;2022-11-15T02:51:18;101925.64;;;2.70;64.58
44351;BME280;62766;62.622;17.912;2022-11-15T02:53:47;101930.06;;;2.59;64.43
44351;BME280;62766;62.622;17.912;2022-11-15T02:56:16;101926.16;;;2.67;64.53
44351;BME280;62766;62.622;17.912;2022-11-15T02:59:00;101925.69;;;2.61;64.67
44351;BME280;62766;62.622;17.912;2022-11-15T03:01:39;101931.29;;;2.58;64.95
44351;BME280;62766;62.622;17.912;2022-11-15T03:04:21;101926.70;;;2.60;64.91
44351;BME280;62766;62.622;17.912;2022-11-15T03:06:58;101927.88;;;2.55;64.92
44351;BME280;62766;62.622;17.912;2022-11-15T03:09:34;101925.95;;;2.57;64.90
44351;BME280;62766;62.622;17.912;2022-11-15T03:12:08;101927.48;;;2.56;64.86
44351;BME280;62766;62.622;17.912;2022-11-15T03:14:45;101927.83;;;2.49;64.89
44351;BME280;62766;62.622;17.912;2022-11-15T03:17:23;101927.16;;;2.59;64.88
44351;BME280;62766;62.622;17.912;2022-11-15T03:19:57;101928.30;;;2.55;64.98
44351;BME280;62766;62.622;17.912;2022-11-15T03:22:29;101924.03;;;2.53;64.92
44351;BME280;62766;62.622;17.912;2022-11-15T03:25:05;101925.78;;;2.43;65.19
44351;BME280;62766;62.622;17.912;2022-11-15T03:27:37;101928.05;;;2.46;65.39
44351;BME280;62766;62.622;17.912;2022-11-15T03:30:10;101928.57;;;2.43;65.52
44351;BME280;62766;62.622;17.912;2022-11-15T03:32:43;101932.31;;;2.36;65.43
44351;BME280;62766;62.622;17.912;2022-11-15T03:35:14;101938.71;;;2.38;65.42
44351;BME280;62766;62.622;17.912;2022-11-15T03:37:50;101938.42;;;2.39;65.28
44351;BME280;62766;62.622;17.912;2022-11-15T03:40:24;101940.14;;;2.43;65.17
44351;BME280;62766;62.622;17.912;2022-11-15T03:43:01;101941.07;;;2.38;65.06
44351;BME280;62766;62.622;17.912;2022-11-15T03:45:39;101938.15;;;2.51;65.08
44351;BME280;62766;62.622;17.912;2022-11-15T03:48:13;101938.85;;;2.44;65.17
44351;BME280;62766;62.622;17.912;2022-11-15T03:50:45;101940.94;;;2.21;65.32
44351;BME280;62766;62.622;17.912;2022-11-15T03:53:14;101942.10;;;2.38;65.35
44351;BME280;62766;62.622;17.912;2022-11-15T03:55:42;101946.02;;;2.33;65.13
44351;BME280;62766;62.622;17.912;2022-11-15T03:58:11;101946.62;;;2.25;64.70
44351;BME280;62766;62.622;17.912;2022-11-15T04:00:39;101944.17;;;2.21;64.54
44351;BME280;62766;62.622;17.912;2022-11-15T04:03:08;101945.46;;;2.27;64.49
44351;BME280;62766;62.622;17.912;2022-11-15T04:05:38;101944.52;;;2.14;64.01
44351;BME280;62766;62.622;17.912;2022-11-15T04:08:06;101941.64;;;2.26;63.16
44351;BME280;62766;62.622;17.912;2022-11-15T04:10:34;101942.36;;;2.16;63.19
44351;BME280;62766;62.622;17.912;2022-11-15T04:13:03;101940.86;;;2.03;63.13
44351;BME280;62766;62.622;17.912;2022-11-15T04:15:31;101942.30;;;1.92;63.74
44351;BME280;62766;62.622;17.912;2022-11-15T04:18:00;101942.20;;;1.87;63.90
44351;BME280;62766;62.622;17.912;2022-11-15T04:20:30;101941.60;;;1.80;64.29
44351;BME280;62766;62.622;17.912;2022-11-15T04:23:00;101940.80;;;1.69;64.52
44351;BME280;62766;62.622;17.912;2022-11-15T04:25:30;101946.53;;;1.73;64.31
44351;BME280;62766;62.622;17.912;2022-11-15T04:27:59;101951.76;;;1.70;64.87
44351;BME280;62766;62.622;17.912;2022-11-15T04:30:27;101957.04;;;1.53;65.25
44351;BME280;62766;62.622;17.912;2022-11-15T04:32:55;101960.18;;;1.49;65.37
44351;BME280;62766;62.622;17.912;2022-11-15T04:35:24;101957.86;;;1.42;65.55
44351;BME280;62766;62.622;17.912;2022-11-15T04:37:53;101961.46;;;1.50;65.54
44351;BME280;62766;62.622;17.912;2022-11-15T04:40:21;101966.18;;;1.42;65.43
44351;BME280;62766;62.622;17.912;2022-11-15T04:42:49;101969.70;;;1.53;65.53
44351;BME280;62766;62.622;17.912;2022-11-15T04:45:18;101975.14;;;1.36;65.90
44351;BME280;62766;62.622;17.912;2022-11-15T04:47:46;101974.89;;;1.54;65.79
44351;BME280;62766;62.622;17.912;2022-11-15T04:50:16;101973.77;;;1.41;65.90
44351;BME280;62766;62.622;17.912;2022-11-15T04:52:51;101970.44;;;1.33;65.92
44351;BME280;62766;62.622;17.912;2022-11-15T04:55:20;101976.96;;;1.31;66.10
44351;BME280;62766;62.622;17.912;2022-11-15T04:57:57;101982.06;;;1.30;65.77
44351;BME280;62766;62.622;17.912;2022-11-15T05:03:38;101985.32;;;1.04;66.09
44351;BME280;62766;62.622;17.912;2022-11-15T05:06:06;101993.65;;;1.29;66.00
44351;BME280;62766;62.622;17.912;2022-11-15T05:08:35;102000.89;;;1.25;65.91
44351;BME280;62766;62.622;17.912;2022-11-15T05:11:03;102006.66;;;1.32;65.55
44351;BME280;62766;62.622;17.912;2022-11-15T05:13:32;102010.41;;;1.29;65.31
44351;BME280;62766;62.622;17.912;2022-11-15T05:16:01;102014.99;;;1.37;64.90
44351;BME280;62766;62.622;17.912;2022-11-15T05:18:28;102017.58;;;1.16;65.54
44351;BME280;62766;62.622;17.912;2022-11-15T05:21:03;102021.04;;;1.24;65.36
44351;BME280;62766;62.622;17.912;2022-11-15T05:23:32;102025.42;;;1.16;65.04
44351;BME280;62766;62.622;17.912;2022-11-15T05:26:02;102029.90;;;1.11;64.83
44351;BME280;62766;62.622;17.912;2022-11-15T05:28:31;102031.27;;;1.14;64.66
44351;BME280;62766;62.622;17.912;2022-11-15T05:31:01;102031.77;;;1.18;64.47
44351;BME280;62766;62.622;17.912;2022-11-15T05:33:30;102034.92;;;0.99;65.08
44351;BME280;62766;62.622;17.912;2022-11-15T05:36:02;102045.13;;;1.17;64.56
44351;BME280;62766;62.622;17.912;2022-11-15T05:38:32;102049.00;;;1.03;64.29
44351;BME280;62766;62.622;17.912;2022-11-15T05:41:03;102050.51;;;1.12;65.59
44351;BME280;62766;62.622;17.912;2022-11-15T05:43:35;102052.40;;;1.10;66.17
44351;BME280;62766;62.622;17.912;2022-11-15T05:46:05;102057.65;;;1.11;66.58
44351;BME280;62766;62.622;17.912;2022-11-15T05:48:34;102060.18;;;1.11;66.82
44351;BME280;62766;62.622;17.912;2022-11-15T05:51:04;102067.50;;;1.13;66.94
44351;BME280;62766;62.622;17.912;2022-11-15T05:53:34;102073.75;;;1.05;66.97
44351;BME280;62766;62.622;17.912;2022-11-15T05:56:04;102074.70;;;1.24;67.02
44351;BME280;62766;62.622;17.912;2022-11-15T05:58:33;102076.71;;;1.22;67.01
44351;BME280;62766;62.622;17.912;2022-11-15T06:01:02;102078.23;;;1.31;67.04
44351;BME280;62766;62.622;17.912;2022-11-15T06:03:30;102079.75;;;1.45;66.98
44351;BME280;62766;62.622;17.912;2022-11-15T06:06:00;102077.79;;;1.45;66.77
44351;BME280;62766;62.622;17.912;2022-11-15T06:08:29;102075.95;;;1.56;66.74
44351;BME280;62766;62.622;17.912;2022-11-15T06:11:03;102075.99;;;1.52;66.90
44351;BME280;62766;62.622;17.912;2022-11-15T06:13:31;102082.41;;;1.44;66.84
44351;BME280;62766;62.622;17.912;2022-11-15T06:16:01;102083.90;;;1.56;66.68
44351;BME280;62766;62.622;17.912;2022-11-15T06:18:32;102084.64;;;1.51;66.50
44351;BME280;62766;62.622;17.912;2022-11-15T06:21:01;102088.82;;;1.58;66.12
44351;BME280;62766;62.622;17.912;2022-11-15T06:23:32;102100.02;;;1.44;66.13
44351;BME280;62766;62.622;17.912;2022-11-15T06:26:02;102098.87;;;1.56;66.34
44351;BME280;62766;62.622;17.912;2022-11-15T06:28:31;102104.14;;;1.49;66.44
44351;BME280;62766;62.622;17.912;2022-11-15T06:31:02;102112.02;;;1.43;66.60
44351;BME280;62766;62.622;17.912;2022-11-15T06:33:31;102110.01;;;1.41;66.68
44351;BME280;62766;62.622;17.912;2022-11-15T06:36:01;102110.98;;;1.38;66.81
44351;BME280;62766;62.622;17.912;2022-11-15T06:38:29;102111.19;;;1.30;67.09
44351;BME280;62766;62.622;17.912;2022-11-15T06:41:02;102108.82;;;1.28;67.01
44351;BME280;62766;62.622;17.912;2022-11-15T06:43:32;102114.93;;;1.29;66.95
44351;BME280;62766;62.622;17.912;2022-11-15T06:46:02;102110.38;;;1.40;66.78
44351;BME280;62766;62.622;17.912;2022-11-15T06:48:33;102115.20;;;1.43;66.71
44351;BME280;62766;62.622;17.912;2022-11-15T06:51:03;102117.51;;;1.40;66.56
44351;BME280;62766;62.622;17.912;2022-11-15T06:53:32;102119.64;;;1.42;66.51
44351;BME280;62766;62.622;17.912;2022-11-15T06:56:02;102125.07;;;1.35;66.53
44351;BME280;62766;62.622;17.912;2022-11-15T06:58:31;102124.05;;;1.42;66.57
44351;BME280;62766;62.622;17.912;2022-11-15T07:01:01;102122.33;;;1.36;66.46
44351;BME280;62766;62.622;17.912;2022-11-15T07:03:29;102126.37;;;1.32;66.22
44351;BME280;62766;62.622;17.912;2022-11-15T07:05:59;102121.97;;;1.37;66.10
44351;BME280;62766;62.622;17.912;2022-11-15T07:08:28;102126.16;;;1.39;65.96
44351;BME280;62766;62.622;17.912;2022-11-15T07:10:58;102119.50;;;1.52;65.63
44351;BME280;62766;62.622;17.912;2022-11-15T07:13:30;102129.84;;;1.50;65.58
44351;BME280;62766;62.622;17.912;2022-11-15T07:16:02;102135.68;;;1.45;65.44
44351;BME280;62766;62.622;17.912;2022-11-15T07:18:30;102136.06;;;1.45;65.24
44351;BME280;62766;62.622;17.912;2022-11-15T07:21:01;102143.05;;;1.34;65.16
44351;BME280;62766;62.622;17.912;2022-11-15T07:23:31;102148.94;;;1.50;65.02
44351;BME280;62766;62.622;17.912;2022-11-15T07:26:00;102154.21;;;1.50;64.12
44351;BME280;62766;62.622;17.912;2022-11-15T07:28:29;102166.88;;;1.33;64.29
44351;BME280;62766;62.622;17.912;2022-11-15T07:31:02;102164.41;;;1.40;64.55
44351;BME280;62766;62.622;17.912;2022-11-15T07:33:29;102168.57;;;1.39;64.35
44351;BME280;62766;62.622;17.912;2022-11-15T07:36:00;102164.46;;;1.54;64.12
44351;BME280;62766;62.622;17.912;2022-11-15T07:38:30;102166.87;;;1.42;63.79
44351;BME280;62766;62.622;17.912;2022-11-15T07:41:01;102172.74;;;1.40;64.09
44351;BME280;62766;62.622;17.912;2022-11-15T07:43:30;102181.26;;;1.27;64.43
44351;BME280;62766;62.622;17.912;2022-11-15T07:46:04;102183.93;;;1.25;64.95
44351;BME280;62766;62.622;17.912;2022-11-15T07:48:35;102187.92;;;1.20;65.08
44351;BME280;62766;62.622;17.912;2022-11-15T07:51:04;102189.18;;;1.10;65.39
44351;BME280;62766;62.622;17.912;2022-11-15T07:53:33;102192.41;;;1.14;65.63
44351;BME280;62766;62.622;17.912;2022-11-15T07:56:01;102196.29;;;1.14;65.26
44351;BME280;62766;62.622;17.912;2022-11-15T07:58:30;102198.45;;;1.11;64.54
44351;BME280;62766;62.622;17.912;2022-11-15T08:01:02;102200.80;;;1.11;64.40
44351;BME280;62766;62.622;17.912;2022-11-15T08:03:32;102205.93;;;1.06;63.77
44351;BME280;62766;62.622;17.912;2022-11-15T08:06:02;102203.75;;;1.10;63.64
44351;BME280;62766;62.622;17.912;2022-11-15T08:08:30;102207.28;;;1.13;63.80
44351;BME280;62766;62.622;17.912;2022-11-15T08:11:00;102211.41;;;1.13;63.71
44351;BME280;62766;62.622;17.912;2022-11-15T08:13:28;102214.33;;;1.15;63.62
44351;BME280;62766;62.622;17.912;2022-11-15T08:15:58;102216.56;;;1.07;63.91
44351;BME280;62766;62.622;17.912;2022-11-15T08:18:27;102214.85;;;1.04;64.12
44351;BME280;62766;62.622;17.912;2022-11-15T08:20:59;102214.69;;;0.97;64.63
44351;BME280;62766;62.622;17.912;2022-11-15T08:23:28;102218.47;;;1.13;65.02
44351;BME280;62766;62.622;17.912;2022-11-15T08:26:01;102218.28;;;1.09;65.19
44351;BME280;62766;62.622;17.912;2022-11-15T08:28:31;102219.42;;;1.16;65.36
44351;BME280;62766;62.622;17.912;2022-11-15T08:31:02;102224.77;;;1.29;65.55
44351;BME280;62766;62.622;17.912;2022-11-15T08:33:31;102225.57;;;1.32;65.55
44351;BME280;62766;62.622;17.912;2022-11-15T08:36:01;102228.26;;;1.44;65.63
44351;BME280;62766;62.622;17.912;2022-11-15T08:38:29;102230.16;;;1.68;65.37
44351;BME280;62766;62.622;17.912;2022-11-15T08:41:03;102227.48;;;1.74;65.25
44351;BME280;62766;62.622;17.912;2022-11-15T08:43:32;102229.68;;;1.59;65.27
44351;BME280;62766;62.622;17.912;2022-11-15T08:46:01;102225.98;;;1.76;65.32
44351;BME280;62766;62.622;17.912;2022-11-15T08:48:30;102226.08;;;1.85;65.40
44351;BME280;62766;62.622;17.912;2022-11-15T08:51:00;102230.68;;;1.93;65.30
44351;BME280;62766;62.622;17.912;2022-11-15T08:53:29;102235.40;;;1.93;65.18
44351;BME280;62766;62.622;17.912;2022-11-15T08:55:57;102230.56;;;2.02;65.33
44351;BME280;62766;62.622;17.912;2022-11-15T08:58:25;102230.18;;;2.04;65.03
44351;BME280;62766;62.622;17.912;2022-11-15T09:00:55;102232.47;;;2.11;65.01
44351;BME280;62766;62.622;17.912;2022-11-15T09:03:25;102234.61;;;2.28;65.13
44351;BME280;62766;62.622;17.912;2022-11-15T09:05:55;102230.09;;;2.30;65.00
44351;BME280;62766;62.622;17.912;2022-11-15T09:08:24;102229.02;;;2.39;64.65
44351;BME280;62766;62.622;17.912;2022-11-15T09:10:52;102231.27;;;2.49;64.39
44351;BME280;62766;62.622;17.912;2022-11-15T09:13:21;102224.11;;;2.52;64.38
44351;BME280;62766;62.622;17.912;2022-11-15T09:15:49;102221.29;;;2.55;64.22
44351;BME280;62766;62.622;17.912;2022-11-15T09:18:18;102226.41;;;2.58;64.31
44351;BME280;62766;62.622;17.912;2022-11-15T09:20:46;102223.95;;;2.66;63.99
44351;BME280;62766;62.622;17.912;2022-11-15T09:23:14;102226.32;;;2.58;64.02
44351;BME280;62766;62.622;17.912;2022-11-15T09:25:43;102229.84;;;2.63;64.06
44351;BME280;62766;62.622;17.912;2022-11-15T09:28:11;102229.37;;;2.68;63.76
44351;BME280;62766;62.622;17.912;2022-11-15T09:30:40;102234.79;;;2.61;63.83
44351;BME280;62766;62.622;17.912;2022-11-15T09:33:08;102236.55;;;2.70;63.66
44351;BME280;62766;62.622;17.912;2022-11-15T09:35:37;102239.22;;;2.68;63.74
44351;BME280;62766;62.622;17.912;2022-11-15T09:38:05;102240.31;;;2.82;63.52
44351;BME280;62766;62.622;17.912;2022-11-15T09:40:36;102243.84;;;2.69;63.64
44351;BME280;62766;62.622;17.912;2022-11-15T09:43:22;102240.09;;;2.81;63.42
44351;BME280;62766;62.622;17.912;2022-11-15T09:46:00;102243.03;;;2.73;63.44
44351;BME280;62766;62.622;17.912;2022-11-15T09:48:43;102240.79;;;2.82;63.54
44351;BME280;62766;62.622;17.912;2022-11-15T09:51:24;102240.79;;;2.67;63.64
44351;BME280;62766;62.622;17.912;2022-11-15T09:54:01;102240.05;;;2.63;63.66
44351;BME280;62766;62.622;17.912;2022-11-15T09:56:32;102241.80;;;2.80;63.46
44351;BME280;62766;62.622;17.912;2022-11-15T09:59:33;102239.82;;;2.96;63.49
44351;BME280;62766;62.622;17.912;2022-11-15T10:02:17;102239.94;;;2.77;63.57
44351;BME280;62766;62.622;17.912;2022-11-15T10:04:47;102236.41;;;2.60;63.71
44351;BME280;62766;62.622;17.912;2022-11-15T10:07:20;102241.12;;;2.73;63.84
44351;BME280;62766;62.622;17.912;2022-11-15T10:09:54;102243.73;;;2.76;64.05
44351;BME280;62766;62.622;17.912;2022-11-15T10:12:23;102244.99;;;2.62;64.13
44351;BME280;62766;62.622;17.912;2022-11-15T10:14:59;102248.58;;;2.62;63.94
44351;BME280;62766;62.622;17.912;2022-11-15T10:17:51;102250.71;;;2.68;64.08
44351;BME280;62766;62.622;17.912;2022-11-15T10:20:25;102254.33;;;2.83;64.07
44351;BME280;62766;62.622;17.912;2022-11-15T10:22:58;102256.51;;;2.81;63.74
44351;BME280;62766;62.622;17.912;2022-11-15T10:25:30;102259.73;;;2.70;63.75
44351;BME280;62766;62.622;17.912;2022-11-15T10:28:05;102259.11;;;2.94;63.86
44351;BME280;62766;62.622;17.912;2022-11-15T10:30:40;102256.62;;;2.81;63.90
44351;BME280;62766;62.622;17.912;2022-11-15T10:33:14;102260.77;;;2.77;63.82
44351;BME280;62766;62.622;17.912;2022-11-15T10:35:45;102261.73;;;2.84;64.05
44351;BME280;62766;62.622;17.912;2022-11-15T10:38:13;102264.24;;;2.86;64.18
44351;BME280;62766;62.622;17.912;2022-11-15T10:40:42;102265.27;;;2.83;64.19
44351;BME280;62766;62.622;17.912;2022-11-15T10:43:16;102265.83;;;2.78;63.86
44351;BME280;62766;62.622;17.912;2022-11-15T10:45:46;102263.97;;;2.85;64.17
44351;BME280;62766;62.622;17.912;2022-11-15T10:48:22;102261.97;;;2.90;64.06
44351;BME280;62766;62.622;17.912;2022-11-15T10:50:52;102258.15;;;2.95;63.75
44351;BME280;62766;62.622;17.912;2022-11-15T10:53:26;102253.16;;;2.93;63.77
44351;BME280;62766;62.622;17.912;2022-11-15T10:55:57;102250.05;;;2.76;63.79
44351;BME280;62766;62.622;17.912;2022-11-15T10:58:34;102247.73;;;2.91;63.51
44351;BME280;62766;62.622;17.912;2022-11-15T11:03:29;102251.17;;;2.73;63.57
44351;BME280;62766;62.622;17.912;2022-11-15T11:06:08;102244.36;;;2.90;63.27
44351;BME280;62766;62.622;17.912;2022-11-15T11:08:37;102238.03;;;2.84;63.18
44351;BME280;62766;62.622;17.912;2022-11-15T11:11:07;102237.95;;;2.94;63.10
44351;BME280;62766;62.622;17.912;2022-11-15T11:13:36;102249.72;;;2.96;62.94
44351;BME280;62766;62.622;17.912;2022-11-15T11:16:19;102247.30;;;2.98;63.01
44351;BME280;62766;62.622;17.912;2022-11-15T11:18:56;102249.02;;;3.10;62.58
44351;BME280;62766;62.622;17.912;2022-11-15T11:21:36;102248.74;;;3.14;62.80
44351;BME280;62766;62.622;17.912;2022-11-15T11:24:14;102246.28;;;3.23;62.75
44351;BME280;62766;62.622;17.912;2022-11-15T11:26:57;102241.62;;;3.19;62.45
44351;BME280;62766;62.622;17.912;2022-11-15T11:29:41;102241.16;;;3.28;62.43
44351;BME280;62766;62.622;17.912;2022-11-15T11:32:26;102241.18;;;3.22;62.07
44351;BME280;62766;62.622;17.912;2022-11-15T11:35:06;102237.50;;;3.30;62.01
44351;BME280;62766;62.622;17.912;2022-11-15T11:37:43;102235.31;;;3.38;61.84
44351;BME280;62766;62.622;17.912;2022-11-15T11:40:24;102234.35;;;3.52;61.60
44351;BME280;62766;62.622;17.912;2022-11-15T11:43:02;102231.51;;;3.59;61.41
44351;BME280;62766;62.622;17.912;2022-11-15T11:45:47;102230.46;;;3.77;61.06
44351;BME280;62766;62.622;17.912;2022-11-15T11:48:32;102237.31;;;3.74;60.99
44351;BME280;62766;62.622;17.912;2022-11-15T11:51:10;102242.45;;;3.68;60.57
44351;BME280;62766;62.622;17.912;2022-11-15T11:53:48;102243.14;;;3.66;60.37
44351;BME280;62766;62.622;17.912;2022-11-15T11:56:25;102245.66;;;3.67;60.43
44351;BME280;62766;62.622;17.912;2022-11-15T11:59:00;102244.14;;;3.52;60.63
44351;BME280;62766;62.622;17.912;2022-11-15T12:01:34;102242.19;;;3.70;60.51
44351;BME280;62766;62.622;17.912;2022-11-15T12:04:11;102238.51;;;3.59;60.49
44351;BME280;62766;62.622;17.912;2022-11-15T12:06:47;102242.32;;;3.31;60.50
44351;BME280;62766;62.622;17.912;2022-11-15T12:09:21;102242.95;;;3.49;60.84
44351;BME280;62766;62.622;17.912;2022-11-15T12:11:57;102243.80;;;3.58;60.79
44351;BME280;62766;62.622;17.912;2022-11-15T12:14:33;102245.26;;;3.61;60.33
44351;BME280;62766;62.622;17.912;2022-11-15T12:17:05;102244.36;;;3.76;60.48
44351;BME280;62766;62.622;17.912;2022-11-15T12:19:33;102240.63;;;3.71;60.29
44351;BME280;62766;62.622;17.912;2022-11-15T12:22:10;102240.21;;;3.75;60.56
44351;BME280;62766;62.622;17.912;2022-11-15T12:24:47;102239.09;;;3.62;60.29
44351;BME280;62766;62.622;17.912;2022-11-15T12:27:19;102235.69;;;3.76;60.33
44351;BME280;62766;62.622;17.912;2022-11-15T12:29:53;102232.42;;;3.71;60.36
44351;BME280;62766;62.622;17.912;2022-11-15T12:32:28;102230.75;;;3.68;60.24
44351;BME280;62766;62.622;17.912;2022-11-15T12:34:57;102234.16;;;3.66;60.35
44351;BME280;62766;62.622;17.912;2022-11-15T12:37:49;102234.52;;;3.79;60.14
44351;BME280;62766;62.622;17.912;2022-11-15T12:40:22;102236.89;;;3.69;60.02
44351;BME280;62766;62.622;17.912;2022-11-15T12:43:00;102242.06;;;3.70;60.32
44351;BME280;62766;62.622;17.912;2022-11-15T12:45:33;102243.24;;;3.71;59.96
44351;BME280;62766;62.622;17.912;2022-11-15T12:49:10;102243.13;;;3.61;60.23
44351;BME280;62766;62.622;17.912;2022-11-15T12:54:58;102240.24;;;3.61;60.56
44351;BME280;62766;62.622;17.912;2022-11-15T12:57:38;102239.18;;;3.58;60.54
44351;BME280;62766;62.622;17.912;2022-11-15T13:00:39;102235.02;;;3.60;60.85
44351;BME280;62766;62.622;17.912;2022-11-15T13:03:26;102232.52;;;3.64;60.84
44351;BME280;62766;62.622;17.912;2022-11-15T13:06:00;102230.52;;;3.73;60.72
44351;BME280;62766;62.622;17.912;2022-11-15T13:08:39;102227.08;;;3.74;60.56
44351;BME280;62766;62.622;17.912;2022-11-15T13:12:52;102225.79;;;3.69;60.64
44351;BME280;62766;62.622;17.912;2022-11-15T13:15:45;102223.79;;;3.69;60.88
44351;BME280;62766;62.622;17.912;2022-11-15T13:18:39;102222.74;;;3.64;60.94
44351;BME280;62766;62.622;17.912;2022-11-15T13:21:24;102228.39;;;3.71;60.86
44351;BME280;62766;62.622;17.912;2022-11-15T13:23:54;102234.48;;;3.67;60.75
44351;BME280;62766;62.622;17.912;2022-11-15T13:26:23;102239.07;;;3.73;60.72
44351;BME280;62766;62.622;17.912;2022-11-15T13:28:53;102241.40;;;3.73;60.40